createdAt,value
2023-07-11T00:01:15.132Z,2.70
2023-07-11T00:03:42.955Z,2.63
2023-07-11T00:06:17.484Z,2.92
2023-07-11T00:08:46.872Z,3.60
2023-07-11T00:11:19.260Z,3.05
2023-07-11T00:13:47.187Z,3.72
2023-07-11T00:16:16.792Z,2.88
2023-07-11T00:18:45.215Z,2.83
2023-07-11T00:21:13.278Z,2.80
2023-07-11T00:23:43.177Z,2.92
2023-07-11T00:26:12.472Z,2.80
2023-07-11T00:28:40.258Z,3.10
2023-07-11T00:31:08.300Z,3.00
2023-07-11T00:33:38.068Z,2.80
2023-07-11T00:36:07.849Z,3.22
2023-07-11T00:38:36.024Z,2.97
2023-07-11T00:41:03.881Z,3.50
2023-07-11T00:43:33.056Z,3.20
2023-07-11T00:46:05.965Z,3.33
2023-07-11T00:48:37.144Z,3.05
2023-07-11T00:51:07.515Z,3.20
2023-07-11T00:53:36.543Z,3.45
2023-07-11T00:56:08.193Z,2.92
2023-07-11T00:58:39.583Z,2.78
2023-07-11T01:01:08.050Z,3.00
2023-07-11T01:03:36.482Z,2.35
2023-07-11T01:06:04.936Z,3.17
2023-07-11T01:08:33.104Z,2.97
2023-07-11T01:11:00.903Z,3.17
2023-07-11T01:13:28.803Z,2.65
2023-07-11T01:15:57.890Z,2.42
2023-07-11T01:18:25.673Z,2.50
2023-07-11T01:20:53.577Z,2.20
2023-07-11T01:23:24.681Z,2.88
2023-07-11T01:25:52.448Z,2.28
2023-07-11T01:28:21.947Z,2.88
2023-07-11T01:30:49.952Z,3.00
2023-07-11T01:33:17.716Z,2.65
2023-07-11T01:35:45.464Z,2.80
2023-07-11T01:38:13.193Z,2.67
2023-07-11T01:40:42.348Z,2.85
2023-07-11T01:43:10.366Z,2.55
2023-07-11T01:45:38.252Z,2.80
2023-07-11T01:48:06.690Z,2.80
2023-07-11T01:50:34.535Z,2.72
2023-07-11T01:53:02.296Z,2.83
2023-07-11T01:55:30.094Z,2.60
2023-07-11T01:57:59.453Z,2.50
2023-07-11T02:00:27.241Z,2.70
2023-07-11T02:02:55.819Z,3.38
2023-07-11T02:05:24.421Z,2.70
2023-07-11T02:07:52.229Z,3.10
2023-07-11T02:10:20.025Z,3.00
2023-07-11T02:12:47.818Z,2.42
2023-07-11T02:15:16.974Z,2.35
2023-07-11T02:17:45.681Z,2.30
2023-07-11T02:20:13.777Z,2.47
2023-07-11T02:22:42.307Z,2.72
2023-07-11T02:25:10.528Z,2.70
2023-07-11T02:27:38.396Z,2.83
2023-07-11T02:30:07.432Z,3.13
2023-07-11T02:32:36.756Z,3.30
2023-07-11T02:35:04.667Z,2.70
2023-07-11T02:37:32.705Z,3.42
2023-07-11T02:40:00.478Z,2.70
2023-07-11T02:42:28.168Z,2.70
2023-07-11T02:44:55.918Z,2.80
2023-07-11T02:47:23.797Z,2.40
2023-07-11T02:49:52.905Z,3.00
2023-07-11T02:52:20.621Z,3.05
2023-07-11T02:54:48.519Z,3.25
2023-07-11T02:57:16.290Z,3.33
2023-07-11T02:59:44.031Z,3.22
2023-07-11T03:02:11.812Z,2.97
2023-07-11T03:04:39.600Z,2.95
2023-07-11T03:07:08.893Z,3.58
2023-07-11T03:09:38.216Z,2.58
2023-07-11T03:12:07.104Z,2.83
2023-07-11T03:14:34.879Z,2.60
2023-07-11T03:17:02.925Z,2.47
2023-07-11T03:19:30.719Z,2.45
2023-07-11T03:21:58.469Z,2.85
2023-07-11T03:24:27.599Z,2.70
2023-07-11T03:26:55.284Z,3.00
2023-07-11T03:29:22.994Z,3.20
2023-07-11T03:31:51.060Z,2.90
2023-07-11T03:34:19.052Z,2.63
2023-07-11T03:36:46.771Z,2.40
2023-07-11T03:39:14.677Z,3.90
2023-07-11T03:41:43.698Z,3.03
2023-07-11T03:44:12.426Z,3.40
2023-07-11T03:46:40.237Z,3.10
2023-07-11T03:49:08.381Z,3.10
2023-07-11T03:51:36.108Z,3.20
2023-07-11T03:54:04.182Z,2.97
2023-07-11T03:56:31.982Z,3.55
2023-07-11T03:59:01.294Z,4.15
2023-07-11T04:01:29.044Z,4.18
2023-07-11T04:03:56.997Z,3.38
2023-07-11T04:06:24.750Z,3.60
2023-07-11T04:08:52.473Z,4.30
2023-07-11T04:11:20.194Z,4.07
2023-07-11T04:13:47.989Z,3.72
2023-07-11T04:16:17.221Z,3.97
2023-07-11T04:18:44.922Z,4.35
2023-07-11T04:21:12.679Z,3.83
2023-07-11T04:23:40.354Z,3.50
2023-07-11T04:26:08.989Z,4.20
2023-07-11T04:28:36.769Z,3.92
2023-07-11T04:31:05.186Z,3.85
2023-07-11T04:33:34.466Z,3.60
2023-07-11T04:36:11.445Z,3.70
2023-07-11T04:38:39.800Z,4.20
2023-07-11T04:41:07.994Z,3.95
2023-07-11T04:43:35.987Z,3.42
2023-07-11T04:46:06.696Z,4.53
2023-07-11T04:48:37.639Z,4.22
2023-07-11T04:51:09.330Z,4.32
2023-07-11T04:53:37.343Z,3.70
2023-07-11T04:56:07.483Z,3.55
2023-07-11T04:58:36.570Z,3.15
2023-07-11T05:01:06.322Z,3.55
2023-07-11T05:03:34.260Z,3.25
2023-07-11T05:06:05.082Z,3.33
2023-07-11T05:08:33.572Z,3.38
2023-07-11T05:11:04.497Z,3.00
2023-07-11T05:13:33.480Z,3.03
2023-07-11T05:16:01.928Z,3.00
2023-07-11T05:18:30.140Z,3.05
2023-07-11T05:20:59.061Z,2.80
2023-07-11T05:23:31.244Z,2.50
2023-07-11T05:25:59.366Z,2.70
2023-07-11T05:28:27.277Z,2.88
2023-07-11T05:30:56.830Z,2.60
2023-07-11T05:33:24.981Z,2.90
2023-07-11T05:36:02.376Z,2.30
2023-07-11T05:38:31.466Z,2.40
2023-07-11T05:40:59.243Z,2.28
2023-07-11T05:43:27.101Z,2.60
2023-07-11T05:45:55.006Z,2.22
2023-07-11T05:48:23.069Z,2.08
2023-07-11T05:51:02.500Z,2.17
2023-07-11T05:53:31.675Z,2.03
2023-07-11T05:55:59.907Z,2.30
2023-07-11T05:58:28.279Z,1.90
2023-07-11T06:00:57.476Z,2.17
2023-07-11T06:03:26.649Z,2.13
2023-07-11T06:05:56.362Z,2.22
2023-07-11T06:08:24.132Z,2.00
2023-07-11T06:10:53.204Z,2.17
2023-07-11T06:13:20.848Z,2.38
2023-07-11T06:15:48.763Z,2.17
2023-07-11T06:18:16.435Z,2.28
2023-07-11T06:20:44.179Z,2.53
2023-07-11T06:23:11.949Z,2.10
2023-07-11T06:25:40.672Z,2.20
2023-07-11T06:28:09.804Z,2.13
2023-07-11T06:30:37.509Z,2.20
2023-07-11T06:33:05.340Z,1.92
2023-07-11T06:35:33.131Z,2.50
2023-07-11T06:38:00.831Z,2.30
2023-07-11T06:40:28.701Z,2.00
2023-07-11T06:42:56.382Z,2.28
2023-07-11T06:45:25.571Z,2.22
2023-07-11T06:47:53.482Z,2.40
2023-07-11T06:50:21.818Z,2.25
2023-07-11T06:52:50.768Z,2.00
2023-07-11T06:55:18.556Z,2.10
2023-07-11T06:57:46.341Z,2.22
2023-07-11T07:00:15.020Z,2.50
2023-07-11T07:02:44.171Z,2.10
2023-07-11T07:05:12.125Z,2.40
2023-07-11T07:07:39.932Z,2.33
2023-07-11T07:10:09.392Z,2.30
2023-07-11T07:12:37.179Z,2.10
2023-07-11T07:15:05.300Z,2.22
2023-07-11T07:17:33.120Z,2.40
2023-07-11T07:20:02.299Z,2.33
2023-07-11T07:22:30.166Z,2.45
2023-07-11T07:24:57.944Z,2.20
2023-07-11T07:27:28.842Z,2.42
2023-07-11T07:29:57.409Z,1.90
2023-07-11T07:32:25.238Z,2.45
2023-07-11T07:34:53.053Z,2.13
2023-07-11T07:37:22.172Z,2.55
2023-07-11T07:39:49.909Z,2.30
2023-07-11T07:42:17.614Z,2.38
2023-07-11T07:44:45.497Z,2.58
2023-07-11T07:47:13.317Z,2.10
2023-07-11T07:49:53.881Z,2.47
2023-07-11T07:52:24.350Z,2.10
2023-07-11T07:54:52.603Z,2.40
2023-07-11T07:57:20.567Z,2.45
2023-07-11T07:59:48.264Z,2.60
2023-07-11T08:02:16.039Z,2.65
2023-07-11T08:04:43.820Z,2.22
2023-07-11T08:07:11.629Z,2.40
2023-07-11T08:09:40.745Z,2.20
2023-07-11T08:12:09.980Z,2.20
2023-07-11T08:14:38.476Z,1.98
2023-07-11T08:17:07.816Z,2.35
2023-07-11T08:19:35.661Z,2.88
2023-07-11T08:22:03.466Z,2.50
2023-07-11T08:24:31.331Z,2.50
2023-07-11T08:27:00.510Z,2.40
2023-07-11T08:29:30.561Z,2.65
2023-07-11T08:31:59.437Z,2.58
2023-07-11T08:34:27.241Z,2.45
2023-07-11T08:36:55.367Z,2.50
2023-07-11T08:39:24.414Z,2.47
2023-07-11T08:41:53.997Z,2.58
2023-07-11T08:44:31.375Z,2.67
2023-07-11T08:47:04.554Z,2.50
2023-07-11T08:49:38.976Z,2.60
2023-07-11T08:52:10.830Z,2.50
2023-07-11T08:54:49.708Z,2.38
2023-07-11T08:57:20.368Z,2.30
2023-07-11T09:00:00.946Z,2.47
2023-07-11T09:02:36.763Z,2.38
2023-07-11T09:05:10.354Z,2.78
2023-07-11T09:07:40.562Z,2.58
2023-07-11T09:10:47.748Z,2.70
2023-07-11T09:13:30.988Z,2.80
2023-07-11T09:16:09.050Z,2.60
2023-07-11T09:18:47.490Z,2.55
2023-07-11T09:21:21.869Z,2.22
2023-07-11T09:24:05.757Z,2.30
2023-07-11T09:26:48.454Z,2.70
2023-07-11T09:29:17.337Z,2.40
2023-07-11T09:31:52.902Z,2.35
2023-07-11T09:34:25.225Z,2.58
2023-07-11T09:36:53.935Z,2.63
2023-07-11T09:39:31.654Z,2.33
2023-07-11T09:42:06.911Z,2.40
2023-07-11T09:44:34.655Z,2.40
2023-07-11T09:47:17.368Z,2.38
2023-07-11T09:49:47.041Z,2.65
2023-07-11T09:52:27.392Z,2.17
2023-07-11T09:55:07.724Z,2.50
2023-07-11T09:57:37.587Z,2.30
2023-07-11T10:02:38.974Z,2.72
2023-07-11T10:05:06.870Z,2.42
2023-07-11T10:07:35.573Z,2.70
2023-07-11T10:10:04.816Z,2.50
2023-07-11T10:12:32.704Z,2.60
2023-07-11T10:15:05.428Z,2.53
2023-07-11T10:17:35.260Z,2.78
2023-07-11T10:20:16.753Z,2.92
2023-07-11T10:22:50.056Z,2.90
2023-07-11T10:25:21.778Z,2.60
2023-07-11T10:27:56.011Z,2.50
2023-07-11T10:30:27.170Z,2.70
2023-07-11T10:33:08.495Z,2.63
2023-07-11T10:35:56.209Z,2.80
2023-07-11T10:38:30.121Z,2.70
2023-07-11T10:41:02.803Z,2.50
2023-07-11T10:43:34.144Z,2.85
2023-07-11T10:46:05.955Z,2.67
2023-07-11T10:48:40.297Z,2.50
2023-07-11T10:51:13.021Z,2.60
2023-07-11T10:53:44.954Z,2.75
2023-07-11T10:56:20.309Z,3.10
2023-07-11T10:58:49.783Z,2.97
2023-07-11T11:01:27.698Z,2.80
2023-07-11T11:04:06.793Z,2.70
2023-07-11T11:06:51.191Z,2.70
2023-07-11T11:09:24.183Z,3.17
2023-07-11T11:12:01.270Z,2.63
2023-07-11T11:14:42.690Z,2.78
2023-07-11T11:17:28.673Z,2.83
2023-07-11T11:20:11.428Z,2.70
2023-07-11T11:22:53.118Z,2.72
2023-07-11T11:25:30.750Z,2.40
2023-07-11T11:28:12.078Z,2.80
2023-07-11T11:30:50.003Z,2.60
2023-07-11T11:33:29.613Z,3.03
2023-07-11T11:36:19.941Z,2.95
2023-07-11T11:39:07.165Z,3.00
2023-07-11T11:41:38.558Z,2.90
2023-07-11T11:46:52.578Z,2.80
2023-07-11T11:49:41.533Z,2.83
2023-07-11T11:52:10.324Z,2.90
2023-07-11T11:54:44.061Z,2.78
2023-07-11T11:57:20.352Z,2.50
2023-07-11T11:59:48.114Z,2.88
2023-07-11T12:02:19.874Z,2.88
2023-07-11T12:05:03.875Z,3.38
2023-07-11T12:07:35.648Z,2.80
2023-07-11T12:10:20.650Z,3.08
2023-07-11T12:13:18.310Z,2.47
2023-07-11T12:15:50.823Z,2.83
2023-07-11T12:18:40.101Z,2.90
2023-07-11T12:21:19.593Z,3.20
2023-07-11T12:24:26.336Z,2.80
2023-07-11T12:26:38.474Z,2.67
2023-07-11T12:29:32.136Z,2.60
2023-07-11T12:32:45.778Z,2.78
2023-07-11T12:35:20.159Z,2.70
2023-07-11T12:38:05.096Z,3.17
2023-07-11T12:40:40.863Z,3.17
2023-07-11T12:45:49.854Z,2.83
2023-07-11T12:48:19.942Z,3.00
2023-07-11T12:50:49.344Z,2.97
2023-07-11T12:53:17.791Z,2.95
2023-07-11T12:55:47.061Z,2.63
2023-07-11T12:58:22.581Z,3.00
2023-07-11T13:00:51.519Z,2.90
2023-07-11T13:03:25.784Z,2.97
2023-07-11T13:06:10.964Z,2.60
2023-07-11T13:08:44.352Z,2.42
2023-07-11T13:11:21.500Z,2.83
2023-07-11T13:13:51.438Z,2.45
2023-07-11T13:16:23.187Z,2.83
2023-07-11T13:18:52.816Z,3.30
2023-07-11T13:21:21.722Z,2.50
2023-07-11T13:23:50.867Z,3.20
2023-07-11T13:26:21.982Z,2.60
2023-07-11T13:29:04.764Z,2.92
2023-07-11T13:31:34.697Z,3.00
2023-07-11T13:34:04.473Z,2.95
2023-07-11T13:36:36.165Z,3.00
2023-07-11T13:39:07.392Z,2.70
2023-07-11T13:41:40.594Z,3.10
2023-07-11T13:44:17.947Z,2.72
2023-07-11T13:46:47.709Z,2.70
2023-07-11T13:49:21.248Z,3.35
2023-07-11T13:51:49.765Z,2.80
2023-07-11T13:54:22.233Z,2.60
2023-07-11T13:56:50.508Z,2.80
2023-07-11T14:01:55.292Z,2.97
2023-07-11T14:04:28.411Z,3.10
2023-07-11T14:06:56.435Z,2.70
2023-07-11T14:09:24.273Z,3.10
2023-07-11T14:11:52.009Z,3.25
2023-07-11T14:16:56.744Z,3.40
2023-07-11T14:19:26.737Z,2.80
2023-07-11T14:21:55.099Z,3.40
2023-07-11T14:24:22.873Z,3.20
2023-07-11T14:26:50.686Z,3.00
2023-07-11T14:29:25.495Z,3.03
2023-07-11T14:31:54.818Z,2.90
2023-07-11T14:34:24.168Z,3.13
2023-07-11T14:36:52.979Z,3.03
2023-07-11T14:39:22.328Z,3.38
2023-07-11T14:41:51.469Z,2.80
2023-07-11T14:44:25.117Z,2.80
2023-07-11T14:46:53.505Z,3.00
2023-07-11T14:49:22.058Z,3.40
2023-07-11T14:51:51.198Z,3.30
2023-07-11T14:54:20.438Z,3.30
2023-07-11T14:59:26.862Z,3.30
2023-07-11T15:01:55.833Z,2.72
2023-07-11T15:06:59.304Z,3.15
2023-07-11T15:14:39.451Z,3.20
2023-07-11T15:17:47.147Z,3.53
2023-07-11T15:20:16.979Z,3.90
2023-07-11T15:22:46.782Z,3.70
2023-07-11T15:25:17.282Z,3.63
2023-07-11T15:27:45.228Z,3.47
2023-07-11T15:30:18.514Z,3.22
2023-07-11T15:32:46.815Z,3.83
2023-07-11T15:35:16.389Z,3.53
2023-07-11T15:37:45.030Z,3.35
2023-07-11T15:40:20.648Z,3.80
2023-07-11T15:42:50.543Z,3.70
2023-07-11T15:45:24.370Z,3.90
2023-07-11T15:47:52.495Z,4.10
2023-07-11T15:50:22.873Z,3.80
2023-07-11T15:52:51.123Z,3.83
2023-07-11T15:55:20.542Z,3.53
2023-07-11T15:57:51.039Z,3.30
2023-07-11T16:00:22.703Z,3.90
2023-07-11T16:02:50.935Z,3.88
2023-07-11T16:05:20.176Z,4.22
2023-07-11T16:07:48.917Z,3.72
2023-07-11T16:10:23.862Z,3.95
2023-07-11T16:12:51.734Z,4.27
2023-07-11T16:15:21.644Z,4.57
2023-07-11T16:17:52.189Z,3.97
2023-07-11T16:20:22.336Z,4.70
2023-07-11T16:22:50.733Z,4.97
2023-07-11T16:25:21.522Z,4.75
2023-07-11T16:27:54.758Z,4.68
2023-07-11T16:30:26.222Z,3.78
2023-07-11T16:32:56.134Z,4.72
2023-07-11T16:35:27.861Z,4.97
2023-07-11T16:38:02.743Z,4.53
2023-07-11T16:40:31.834Z,4.40
2023-07-11T16:42:59.927Z,4.88
2023-07-11T16:45:34.106Z,4.63
2023-07-11T16:48:03.456Z,4.97
2023-07-11T16:50:34.629Z,5.15
2023-07-11T16:53:06.417Z,4.80
2023-07-11T16:55:34.810Z,4.85
2023-07-11T16:58:02.591Z,4.43
2023-07-11T17:00:31.728Z,5.15
2023-07-11T17:03:01.133Z,4.65
2023-07-11T17:05:29.278Z,5.00
2023-07-11T17:07:57.181Z,5.15
2023-07-11T17:10:25.016Z,5.20
2023-07-11T17:12:52.754Z,4.90
2023-07-11T17:15:21.419Z,4.70
2023-07-11T17:17:50.799Z,4.72
2023-07-11T17:20:21.678Z,5.10
2023-07-11T17:22:49.887Z,5.10
2023-07-11T17:25:19.484Z,4.80
2023-07-11T17:27:51.036Z,4.45
2023-07-11T17:30:21.213Z,5.43
2023-07-11T17:32:50.847Z,5.60
2023-07-11T17:35:19.130Z,4.45
2023-07-11T17:37:49.546Z,5.03
2023-07-11T17:40:20.144Z,4.78
2023-07-11T17:42:48.045Z,4.97
2023-07-11T17:45:20.377Z,5.07
2023-07-11T17:48:16.311Z,5.18
2023-07-11T17:50:46.797Z,5.00
2023-07-11T17:53:15.009Z,5.22
2023-07-11T17:55:42.972Z,5.60
2023-07-11T17:58:21.614Z,5.15
2023-07-11T18:00:50.004Z,5.00
2023-07-11T18:03:19.220Z,5.05
2023-07-11T18:05:47.991Z,4.95
2023-07-11T18:08:17.307Z,4.65
2023-07-11T18:10:46.292Z,4.88
2023-07-11T18:13:15.133Z,5.00
2023-07-11T18:15:45.978Z,4.90
2023-07-11T18:18:24.817Z,5.20
2023-07-11T18:20:53.195Z,5.13
2023-07-11T18:23:20.963Z,5.40
2023-07-11T18:25:49.216Z,5.65
2023-07-11T18:28:18.629Z,5.15
2023-07-11T18:30:46.937Z,5.20
2023-07-11T18:33:15.518Z,4.72
2023-07-11T18:35:46.260Z,5.57
2023-07-11T18:38:17.057Z,5.28
2023-07-11T18:40:46.682Z,4.70
2023-07-11T18:43:14.662Z,4.38
2023-07-11T18:45:45.113Z,4.63
2023-07-11T18:48:15.187Z,5.13
2023-07-11T18:50:45.111Z,4.38
2023-07-11T18:53:13.389Z,4.88
2023-07-11T18:55:44.552Z,4.85
2023-07-11T18:58:13.475Z,4.47
2023-07-11T19:00:45.037Z,4.50
2023-07-11T19:03:12.901Z,4.50
2023-07-11T19:05:41.224Z,4.70
2023-07-11T19:08:17.979Z,4.25
2023-07-11T19:10:45.837Z,3.55
2023-07-11T19:13:14.034Z,4.22
2023-07-11T19:15:44.397Z,4.65
2023-07-11T19:18:17.970Z,4.70
2023-07-11T19:20:46.000Z,4.38
2023-07-11T19:23:19.385Z,4.22
2023-07-11T19:25:49.911Z,4.30
2023-07-11T19:28:21.172Z,4.60
2023-07-11T19:30:51.194Z,4.50
2023-07-11T19:33:19.764Z,4.40
2023-07-11T19:35:51.226Z,4.15
2023-07-11T19:38:22.161Z,4.70
2023-07-11T19:40:50.352Z,4.38
2023-07-11T19:43:18.351Z,4.28
2023-07-11T19:45:48.432Z,4.55
2023-07-11T19:48:18.475Z,4.50
2023-07-11T19:50:47.599Z,4.53
2023-07-11T19:53:18.546Z,4.57
2023-07-11T19:55:49.503Z,4.32
2023-07-11T19:58:20.560Z,4.68
2023-07-11T20:00:49.532Z,4.72
2023-07-11T20:03:18.984Z,5.50
2023-07-11T20:05:48.117Z,4.60
2023-07-11T20:08:20.801Z,5.00
2023-07-11T20:10:52.732Z,4.63
2023-07-11T20:13:22.942Z,5.18
2023-07-11T20:15:53.335Z,4.90
2023-07-11T20:18:23.117Z,5.30
2023-07-11T20:20:52.778Z,4.95
2023-07-11T20:23:21.136Z,5.00
2023-07-11T20:25:55.389Z,5.15
2023-07-11T20:28:23.316Z,4.82
2023-07-11T20:30:53.088Z,5.38
2023-07-11T20:33:21.864Z,6.15
2023-07-11T20:35:51.581Z,4.88
2023-07-11T20:38:21.192Z,4.50
2023-07-11T20:40:51.426Z,4.50
2023-07-11T20:43:21.103Z,4.35
2023-07-11T20:45:50.356Z,4.53
2023-07-11T20:48:19.285Z,5.28
2023-07-11T20:50:47.907Z,6.43
2023-07-11T20:53:16.515Z,5.28
2023-07-11T20:55:50.930Z,5.22
2023-07-11T20:58:20.307Z,5.10
2023-07-11T21:00:49.818Z,4.72
2023-07-11T21:03:20.071Z,4.88
2023-07-11T21:05:49.533Z,4.65
2023-07-11T21:08:29.033Z,5.00
2023-07-11T21:10:58.519Z,5.75
2023-07-11T21:13:27.935Z,6.25
2023-07-11T21:15:56.801Z,6.18
2023-07-11T21:18:26.033Z,5.40
2023-07-11T21:20:55.833Z,5.40
2023-07-11T21:23:24.979Z,5.28
2023-07-11T21:25:54.215Z,4.82
2023-07-11T21:28:34.342Z,5.82
2023-07-11T21:31:05.592Z,4.82
2023-07-11T21:33:34.204Z,5.20
2023-07-11T21:36:03.336Z,4.15
2023-07-11T21:38:32.817Z,3.72
2023-07-11T21:41:01.665Z,3.75
2023-07-11T21:43:29.631Z,4.30
2023-07-11T21:45:59.359Z,4.22
2023-07-11T21:48:29.302Z,4.10
2023-07-11T21:50:58.454Z,4.18
2023-07-11T21:53:28.166Z,3.95
2023-07-11T21:56:00.441Z,4.10
2023-07-11T21:58:28.593Z,3.78
2023-07-11T22:00:56.427Z,3.80
2023-07-11T22:03:28.396Z,3.50
2023-07-11T22:05:58.783Z,3.47
2023-07-11T22:08:29.186Z,4.07
2023-07-11T22:10:57.690Z,4.03
2023-07-11T22:13:28.839Z,4.10
2023-07-11T22:15:57.222Z,3.60
2023-07-11T22:18:30.317Z,3.10
2023-07-11T22:20:58.975Z,3.53
2023-07-11T22:23:27.120Z,3.78
2023-07-11T22:25:54.964Z,3.60
2023-07-11T22:28:25.282Z,3.25
2023-07-11T22:30:56.481Z,3.38
2023-07-11T22:33:24.552Z,3.90
2023-07-11T22:35:53.715Z,3.53
2023-07-11T22:38:21.471Z,3.53
2023-07-11T22:40:50.829Z,3.30
2023-07-11T22:43:21.510Z,3.17
2023-07-11T22:45:52.558Z,3.10
2023-07-11T22:48:22.193Z,3.00
2023-07-11T22:50:51.876Z,3.40
2023-07-11T22:53:22.803Z,3.55
2023-07-11T22:55:52.854Z,3.47
2023-07-11T22:58:24.905Z,4.03
2023-07-11T23:00:53.107Z,4.13
2023-07-11T23:03:21.553Z,3.83
2023-07-11T23:05:49.453Z,4.07
2023-07-11T23:08:19.594Z,3.60
2023-07-11T23:10:49.238Z,3.10
2023-07-11T23:13:17.814Z,3.47
2023-07-11T23:15:49.762Z,3.45
2023-07-11T23:18:21.160Z,3.13
2023-07-11T23:20:52.790Z,3.20
2023-07-11T23:23:21.412Z,3.70
2023-07-11T23:25:50.818Z,3.70
2023-07-11T23:28:26.037Z,3.35
2023-07-11T23:30:55.373Z,3.10
2023-07-11T23:33:24.911Z,3.60
2023-07-11T23:35:54.765Z,4.28
2023-07-11T23:38:23.254Z,3.90
2023-07-11T23:40:54.342Z,4.78
2023-07-11T23:43:25.360Z,4.35
2023-07-11T23:45:54.706Z,4.45
2023-07-11T23:48:24.974Z,4.93
2023-07-11T23:50:55.398Z,4.32
2023-07-11T23:53:24.235Z,4.13
2023-07-11T23:56:00.377Z,3.90
2023-07-11T23:58:30.018Z,4.43
